Home   Weather   USA   Thomasville   Past weeks
Flag for USA

Past Weather in Thomasville, North Carolina, USA — Yesterday and Last 2 Weeks

Currently: 83 °F. Scattered clouds. (Weather station: Davidson County Airport, USA). See more current weather

Past Weather in Thomasville — Graph

°F

Thomasville Temperature Yesterday

Maximum temperature yesterday: 81 °F (at 6:05 pm)
Minimum temperature yesterday: 59 °F (at 5:05 am)
Average temperature yesterday: 70 °F

High & Low Weather Summary for the Past Weeks

 TemperatureHumidityPressure
High85 °F (Jun 6, 2:05 pm)100% (May 29, 2:05 am)30.31 "Hg (May 29, 2:05 am)
Low49 °F (Jun 1, 6:05 am)27% (May 31, 3:25 pm)29.68 "Hg (Jun 6, 5:25 pm)
Average71 °F74%29.97 "Hg
* Reported May 28 5:05 pm — Jun 12 5:05 pm, Thomasville. Weather by CustomWeather, © 2024

Note: Actual official high and low records may vary slightly from our data, if they occured in-between our weather recording intervals... More about our weather records

Thomasville Weather History for the Previous 24 Hours

Scroll right to see more
 ConditionsComfort  
Time TempWeatherWind HumidityBarometerVisibility
5:05 pm
Wed, Jun 12
83 °FSunny.3 mph51%30.00 "Hg10 mi
4:25 pm83 °FScattered clouds.3 mph49%30.01 "Hg10 mi
4:05 pm83 °FPartly sunny.No wind48%30.01 "Hg10 mi
3:25 pm85 °FScattered clouds.3 mph49%30.02 "Hg10 mi
3:05 pm84 °FScattered clouds.7 mph47%30.03 "Hg10 mi
1:45 pm83 °FScattered clouds.7 mph54%30.05 "Hg10 mi
1:05 pm80 °FSunny.No wind56%30.05 "Hg10 mi
12:25 pm80 °FSunny.3 mph58%30.06 "Hg10 mi
12:05 pm79 °FSunny.No wind61%30.06 "Hg10 mi
11:45 am77 °FSunny.3 mph64%30.07 "Hg10 mi
11:25 am77 °FSunny.6 mph63%30.07 "Hg10 mi
11:05 am76 °FSunny.No wind62%30.07 "Hg10 mi
10:25 am74 °FSunny.No wind67%30.08 "Hg10 mi
10:05 am73 °FSunny.No wind68%30.08 "Hg10 mi
9:25 am71 °FSunny.No wind70%30.07 "Hg10 mi
9:05 am70 °FSunny.No wind71%30.06 "Hg10 mi
8:25 am68 °FSunny.6 mph72%30.05 "Hg10 mi
8:05 am67 °FSunny.3 mph72%30.05 "Hg10 mi
7:05 am64 °FSunny.3 mph78%30.03 "Hg10 mi
6:45 am63 °FSunny.No wind80%30.03 "Hg10 mi
6:25 am63 °FSunny.No wind84%30.02 "Hg10 mi
6:05 am63 °FSunny.5 mph87%30.02 "Hg10 mi
5:25 am63 °FClear.3 mph89%30.02 "Hg10 mi
5:05 am64 °FPassing clouds.No wind85%30.02 "Hg10 mi
4:45 am64 °FPassing clouds.No wind84%30.01 "Hg10 mi
4:05 am64 °FClear.No wind87%30.00 "Hg10 mi
3:25 am65 °FPassing clouds.No wind82%29.99 "Hg10 mi
3:05 am67 °FPassing clouds.No wind77%29.99 "Hg10 mi
2:25 am68 °FOvercast.No wind75%29.99 "Hg10 mi
2:05 am68 °FOvercast.3 mph74%29.99 "Hg10 mi
1:25 am67 °FOvercast.No wind84%29.99 "Hg10 mi
1:05 am67 °FOvercast.No wind82%29.99 "Hg10 mi
12:45 am66 °FOvercast.No wind97%29.99 "Hg10 mi
12:25 am66 °FOvercast.No wind92%29.99 "Hg10 mi
12:05 am66 °FOvercast.No wind94%29.99 "Hg10 mi
11:45 pm
Tue, Jun 11
65 °FPassing clouds.No wind83%29.99 "Hg10 mi
11:25 pm67 °FClear.No wind79%29.98 "Hg10 mi
10:45 pm68 °FClear.No wind77%29.97 "Hg10 mi
10:05 pm69 °FClear.No wind74%29.96 "Hg10 mi
9:45 pm69 °FClear.No wind72%29.95 "Hg10 mi
9:05 pm71 °FClear.No wind68%29.94 "Hg10 mi
8:45 pm72 °FClear.No wind65%29.94 "Hg10 mi
8:20 pm74 °FSunny.No wind62%29.94 "Hg10 mi
8:05 pm76 °FScattered clouds.No wind59%29.93 "Hg10 mi
7:25 pm80 °FMostly cloudy.5 mph46%29.93 "Hg10 mi
7:05 pm80 °FMostly cloudy.No wind45%29.92 "Hg10 mi
6:25 pm80 °FPartly sunny.3 mph49%29.91 "Hg10 mi
6:05 pm81 °FSunny.3 mph44%29.91 "Hg10 mi
Weather by CustomWeather, © 2024

See weather overview